Time;durP1;ratioP1;P1;durP2;ratioP2;P2;SDS_P1;SDS_P2;PMS_P1;PMS_P2;Temp;Humidity;BMP_temperature;BMP_pressure;BME280_temperature;BME280_humidity;BME280_pressure;Samples;Min_cycle;Max_cycle;Signal;HPM_P1;HPM_P2
2022/10/04 07:13:17;;;;;;;3.95;2.70;;;;;;;13.28;99.48;100808.59;687522;30;20423;-88
2022/10/04 07:20:00;;;;;;;5.93;2.37;;;;;;;14.84;89.72;100815.84;2636710;27;20452;-89
2022/10/04 07:23:27;;;;;;;3.33;2.78;;;;;;;14.56;88.77;100804.97;5449449;27;34384;-88
2022/10/04 07:33:58;;;;;;;3.03;2.58;;;;;;;13.04;99.88;100816.97;1806540;27;20118;-88
2022/10/04 07:37:09;;;;;;;3.40;2.67;;;;;;;13.07;99.56;100815.00;5428255;27;32701;-87
2022/10/04 07:40:26;;;;;;;13.73;2.70;;;;;;;13.52;97.41;100818.91;5386044;33;33397;-88
2022/10/04 07:43:32;;;;;;;4.68;2.97;;;;;;;14.73;89.96;100816.47;5400886;33;34240;-86
2022/10/04 07:46:41;;;;;;;3.03;2.20;;;;;;;18.90;71.38;100814.91;5401059;32;33975;-87
2022/10/04 07:49:44;;;;;;;3.95;2.17;;;;;;;21.49;56.94;100821.47;5408639;32;34159;-88
2022/10/04 07:52:51;;;;;;;3.30;1.95;;;;;;;23.51;48.33;100823.63;5398521;32;33571;-89
2022/10/04 07:56:16;;;;;;;2.03;1.73;;;;;;;25.71;44.92;100815.00;5384330;33;33135;-86
2022/10/04 07:59:31;;;;;;;3.62;2.10;;;;;;;27.07;38.36;100831.00;5397957;33;34538;-87
2022/10/04 08:02:54;;;;;;;3.55;2.12;;;;;;;26.61;38.70;100821.53;5375005;33;33272;-91
2022/10/04 08:06:12;;;;;;;3.67;1.85;;;;;;;22.88;45.51;100823.25;5398346;32;35153;-87
2022/10/04 08:09:53;;;;;;;4.85;2.10;;;;;;;20.11;53.95;100841.28;5396202;33;33846;-87
2022/10/04 08:13:28;;;;;;;3.97;1.85;;;;;;;17.30;64.35;100838.25;5397590;33;34228;-88
2022/10/04 08:16:57;;;;;;;2.65;2.00;;;;;;;16.03;73.09;100836.97;5393053;33;32697;-90
2022/10/04 08:20:36;;;;;;;5.57;2.33;;;;;;;15.60;76.24;100840.56;5406569;32;33031;-88
2022/10/04 08:23:49;;;;;;;5.07;2.33;;;;;;;14.75;81.35;100854.66;5422465;27;33860;-88
2022/10/04 08:27:17;;;;;;;4.25;2.40;;;;;;;14.10;83.38;100853.91;5375934;33;33247;-88
2022/10/04 08:30:21;;;;;;;5.30;2.65;;;;;;;13.85;85.97;100864.16;5377441;33;33809;-88
2022/10/04 08:34:02;;;;;;;4.55;2.30;;;;;;;13.81;86.64;100857.25;5428565;27;33849;-89
2022/10/04 08:37:43;;;;;;;3.47;2.40;;;;;;;13.73;88.16;100863.00;5388467;32;34799;-88
2022/10/04 09:00:19;;;;;;;5.37;2.55;;;;;;;13.98;88.18;100869.66;822730;30;20409;-86
2022/10/04 09:03:35;;;;;;;3.60;2.60;;;;;;;14.22;86.95;100852.31;5396385;32;32525;-87
2022/10/04 09:07:26;;;;;;;3.97;2.75;;;;;;;14.28;85.95;100854.63;5394335;33;34164;-85
2022/10/04 09:11:03;;;;;;;7.03;2.65;;;;;;;14.76;80.68;100870.59;5396276;33;36750;-85
2022/10/04 09:14:24;;;;;;;6.30;2.35;;;;;;;15.38;78.83;100863.28;5383960;33;34933;-85
2022/10/04 09:18:01;;;;;;;2.40;1.87;;;;;;;16.21;74.80;100847.41;5397867;33;33987;-85
2022/10/04 09:21:11;;;;;;;4.43;2.35;;;;;;;16.88;70.01;100867.94;5377160;33;32630;-84
2022/10/04 09:24:20;;;;;;;3.17;2.08;;;;;;;17.42;65.69;100881.25;5397337;32;34006;-84
2022/10/04 09:27:55;;;;;;;4.60;2.10;;;;;;;17.46;63.70;100878.25;5386551;33;32398;-84
2022/10/04 09:31:07;;;;;;;5.62;2.25;;;;;;;17.19;64.05;100873.88;5410272;32;32745;-84
2022/10/04 09:34:27;;;;;;;4.28;2.05;;;;;;;17.16;62.62;100870.56;5405093;32;34124;-86
2022/10/04 09:37:35;;;;;;;2.97;2.10;;;;;;;17.87;61.28;100875.38;5394719;33;33981;-88
2022/10/04 09:41:15;;;;;;;4.22;1.80;;;;;;;17.28;62.64;100882.22;5397854;33;34659;-87
2022/10/04 09:44:33;;;;;;;3.50;2.35;;;;;;;17.99;62.67;100879.84;5394858;32;34698;-89
2022/10/04 09:48:15;;;;;;;5.90;2.30;;;;;;;18.10;61.85;100875.56;5395357;33;34388;-87
2022/10/04 09:51:39;;;;;;;5.37;2.10;;;;;;;17.92;62.74;100859.81;5392190;32;33788;-86
2022/10/04 09:55:04;;;;;;;3.75;1.87;;;;;;;18.68;58.56;100864.09;5383134;33;34032;-86
2022/10/04 09:58:21;;;;;;;4.35;2.28;;;;;;;18.32;58.93;100869.47;5398894;32;34151;-87
2022/10/04 10:01:32;;;;;;;3.58;1.98;;;;;;;17.46;62.02;100880.91;5391137;33;32751;-87
2022/10/04 10:04:50;;;;;;;4.72;2.20;;;;;;;16.90;63.38;100883.91;5431216;27;34023;-89
2022/10/04 10:08:12;;;;;;;7.85;2.15;;;;;;;16.45;67.17;100882.41;5450239;27;33780;-85
2022/10/04 10:15:30;;;;;;;3.78;2.10;;;;;;;15.95;69.15;100898.16;5370376;33;32751;-88
2022/10/04 10:19:13;;;;;;;3.50;2.43;;;;;;;17.03;64.22;100895.53;5366205;33;34021;-87
2022/10/04 10:22:16;;;;;;;3.67;1.83;;;;;;;17.30;64.76;100886.50;5369162;27;33755;-87
2022/10/04 10:26:07;;;;;;;5.60;1.95;;;;;;;17.33;62.90;100880.94;5348544;33;32157;-87
2022/10/04 10:29:31;;;;;;;8.98;2.00;;;;;;;16.97;64.03;100888.75;5328389;33;33804;-87
2022/10/04 10:32:50;;;;;;;5.35;2.37;;;;;;;17.97;60.33;100895.22;5362060;33;32919;-86
2022/10/04 10:36:25;;;;;;;5.07;1.90;;;;;;;17.36;63.17;100899.50;5362713;33;33848;-87
2022/10/04 10:39:46;;;;;;;3.92;1.90;;;;;;;16.39;66.24;100890.84;5346349;33;32700;-87
2022/10/04 10:43:28;;;;;;;4.55;1.92;;;;;;;16.32;66.71;100898.44;5348973;33;32305;-87
2022/10/04 10:47:10;;;;;;;1.92;1.62;;;;;;;16.66;64.67;100898.00;5335182;33;33450;-86
2022/10/04 10:50:57;;;;;;;3.70;1.65;;;;;;;16.82;62.12;100885.28;5353305;33;34611;-88
2022/10/04 10:54:34;;;;;;;5.87;2.00;;;;;;;16.70;62.93;100889.66;5353940;33;33881;-86
2022/10/04 10:57:55;;;;;;;3.17;1.70;;;;;;;16.78;61.20;100897.16;5365278;33;33917;-88
2022/10/04 11:01:20;;;;;;;2.75;1.50;;;;;;;19.18;54.43;100887.19;5364601;33;33836;-87
2022/10/04 11:04:33;;;;;;;3.65;1.80;;;;;;;21.33;47.41;100889.44;5345279;33;34021;-88
2022/10/04 11:07:54;;;;;;;3.05;1.58;;;;;;;21.61;48.00;100892.38;5358773;33;34131;-87
2022/10/04 11:11:15;;;;;;;3.37;1.70;;;;;;;21.57;46.56;100890.09;5358053;33;34406;-87
2022/10/04 11:14:45;;;;;;;2.05;1.58;;;;;;;20.31;49.47;100896.16;5356767;33;33043;-86
2022/10/04 11:18:30;;;;;;;6.18;2.20;;;;;;;20.29;50.75;100880.16;5355206;33;32619;-88
2022/10/04 11:22:06;;;;;;;3.20;1.67;;;;;;;20.77;48.88;100880.66;5347978;33;34010;-89
2022/10/04 11:25:34;;;;;;;4.00;1.77;;;;;;;19.15;52.92;100882.91;5359576;33;32777;-87
2022/10/04 11:29:09;;;;;;;6.28;1.60;;;;;;;18.38;55.32;100893.16;5356413;33;33497;-87
2022/10/04 11:32:40;;;;;;;5.43;1.90;;;;;;;18.03;56.73;100897.47;5345947;33;32812;-87
2022/10/04 11:36:00;;;;;;;2.25;1.50;;;;;;;18.02;56.07;100901.13;5361025;33;34122;-87
2022/10/04 11:39:31;;;;;;;2.97;1.60;;;;;;;17.61;57.29;100902.28;5347691;33;33556;-86
2022/10/04 11:42:43;;;;;;;2.00;1.52;;;;;;;17.52;55.42;100907.31;5369976;33;34157;-87
2022/10/04 11:46:11;;;;;;;4.45;2.53;;;;;;;17.58;57.08;100897.13;5368837;33;33621;-86
2022/10/04 11:49:35;;;;;;;3.10;1.90;;;;;;;17.26;56.87;100900.25;5360932;33;33949;-87
2022/10/04 11:53:13;;;;;;;1.95;1.70;;;;;;;16.75;59.95;100894.69;5363230;33;35396;-88
2022/10/04 11:56:32;;;;;;;4.20;1.80;;;;;;;16.30;63.95;100895.84;5386669;27;34049;-86
2022/10/04 11:59:53;;;;;;;4.05;2.03;;;;;;;17.19;61.34;100895.31;5388522;33;33608;-87
2022/10/04 12:03:34;;;;;;;5.75;1.87;;;;;;;17.32;60.78;100889.97;5405736;27;33901;-87
2022/10/04 12:06:56;;;;;;;5.72;1.75;;;;;;;17.19;61.20;100889.97;5368025;33;34465;-88
2022/10/04 12:10:29;;;;;;;4.25;2.15;;;;;;;17.22;60.42;100895.13;5379693;33;33844;-88
2022/10/04 12:14:27;;;;;;;7.20;2.25;;;;;;;17.69;60.18;100902.56;5377805;33;35147;-92
2022/10/04 12:17:51;;;;;;;6.68;2.78;;;;;;;17.71;60.73;100897.09;5344401;33;33003;-88
2022/10/04 12:21:13;;;;;;;3.72;2.22;;;;;;;18.23;60.04;100889.78;5367118;33;32691;-88
2022/10/04 12:24:33;;;;;;;6.03;2.20;;;;;;;17.95;60.83;100899.00;5383994;33;33383;-88
2022/10/04 12:27:37;;;;;;;3.92;2.47;;;;;;;16.68;65.95;100894.25;5378982;33;34175;-88
2022/10/04 12:30:49;;;;;;;5.05;2.40;;;;;;;16.90;66.17;100902.66;5370992;33;32527;-86
2022/10/04 12:34:15;;;;;;;4.68;2.10;;;;;;;17.04;65.24;100901.75;5362855;33;34213;-86
2022/10/04 12:37:41;;;;;;;2.47;1.90;;;;;;;17.29;63.52;100892.00;5365727;33;34326;-85
2022/10/04 12:40:56;;;;;;;3.20;2.05;;;;;;;17.36;62.08;100902.16;5367197;33;33180;-85
2022/10/04 12:44:21;;;;;;;6.50;2.47;;;;;;;17.47;62.04;100898.75;5367985;33;33257;-87
2022/10/04 12:47:26;;;;;;;1.52;1.42;;;;;;;17.65;58.22;100896.56;5386542;33;34574;-86
2022/10/04 12:50:32;;;;;;;2.15;1.60;;;;;;;17.20;59.07;100901.56;5377725;33;34029;-86
2022/10/04 12:53:49;;;;;;;3.62;2.25;;;;;;;17.23;59.73;100907.56;5364035;33;32810;-87
2022/10/04 12:57:20;;;;;;;1.62;1.50;;;;;;;16.85;61.42;100902.97;5364187;33;33309;-86
2022/10/04 13:00:27;;;;;;;3.33;1.40;;;;;;;17.13;60.38;100908.28;5375838;33;34556;-86
2022/10/04 13:04:01;;;;;;;3.85;1.50;;;;;;;17.19;59.44;100895.31;5378346;33;33628;-87
2022/10/04 13:07:31;;;;;;;2.22;1.80;;;;;;;17.25;58.46;100896.69;5390287;33;34469;-87
2022/10/04 13:10:55;;;;;;;1.70;1.60;;;;;;;17.38;60.09;100894.03;5377804;33;34313;-86
2022/10/04 13:14:07;;;;;;;1.35;1.10;;;;;;;16.98;58.63;100894.94;5378236;33;34630;-85
2022/10/04 13:17:38;;;;;;;1.05;0.95;;;;;;;16.86;58.09;100903.81;5377472;33;34109;-86
2022/10/04 13:20:56;;;;;;;2.72;1.45;;;;;;;16.91;57.14;100897.22;5377247;33;34005;-87
2022/10/04 13:28:04;;;;;;;1.40;1.20;;;;;;;16.67;57.81;100889.00;5385609;27;20110;-86
2022/10/04 13:31:31;;;;;;;3.05;1.30;;;;;;;16.89;58.61;100891.06;5382525;33;32853;-87
2022/10/04 13:35:05;;;;;;;2.00;1.52;;;;;;;17.24;60.02;100892.31;5383574;33;32708;-88
2022/10/04 13:38:53;;;;;;;3.28;1.52;;;;;;;17.27;59.51;100893.91;5387058;33;33278;-87
2022/10/04 13:42:28;;;;;;;3.53;1.30;;;;;;;17.14;59.38;100894.78;5385776;32;34093;-87
2022/10/04 13:45:48;;;;;;;3.90;1.40;;;;;;;17.19;57.29;100894.44;5375378;33;33977;-86
2022/10/04 13:48:59;;;;;;;1.25;1.20;;;;;;;16.93;56.90;100902.44;5378821;33;32526;-86
2022/10/04 13:59:48;;;;;;;1.73;1.42;;;;;;;16.56;58.46;100911.16;5396790;33;33771;-85
2022/10/04 14:03:09;;;;;;;1.75;1.27;;;;;;;16.33;57.76;100904.66;5397401;32;34499;-85
2022/10/04 14:06:24;;;;;;;1.85;1.30;;;;;;;16.39;58.36;100910.44;5384423;33;32258;-87
2022/10/04 14:10:01;;;;;;;2.33;1.30;;;;;;;16.33;58.84;100921.56;5389454;33;32576;-85
2022/10/04 14:13:35;;;;;;;1.85;1.48;;;;;;;16.08;59.94;100922.31;5374015;33;33254;-86
2022/10/04 14:17:12;;;;;;;4.30;1.70;;;;;;;16.14;61.93;100928.09;5399283;33;35059;-87
2022/10/04 14:20:39;;;;;;;1.98;1.75;;;;;;;15.95;60.84;100927.56;5399112;33;33901;-89
2022/10/04 14:35:18;;;;;;;3.55;1.70;;;;;;;15.90;63.55;100923.34;967704;27;20399;-87
2022/10/04 14:38:30;;;;;;;2.28;1.60;;;;;;;15.66;64.33;100931.09;5383963;33;32556;-88
2022/10/04 14:42:04;;;;;;;1.73;1.62;;;;;;;15.77;64.71;100925.94;5386185;32;34398;-88
2022/10/04 14:45:46;;;;;;;2.05;1.77;;;;;;;15.84;65.59;100939.78;5386677;33;34382;-88
2022/10/04 14:49:12;;;;;;;1.98;1.80;;;;;;;15.78;65.10;100937.47;5388514;33;33237;-88
2022/10/04 14:52:32;;;;;;;3.72;1.55;;;;;;;15.81;65.26;100934.63;5476562;27;35402;-86
2022/10/04 14:56:26;;;;;;;2.70;1.50;;;;;;;16.16;64.19;100952.94;5406895;32;34487;-89
2022/10/04 14:59:46;;;;;;;4.03;1.35;;;;;;;16.07;60.83;100948.19;5372863;33;33327;-89
2022/10/04 15:03:39;;;;;;;4.93;1.30;;;;;;;15.93;61.45;100951.75;5398672;33;33732;-89
2022/10/04 15:07:02;;;;;;;4.37;1.52;;;;;;;15.71;60.55;100961.09;5379454;33;33379;-89
2022/10/04 15:10:35;;;;;;;2.85;1.40;;;;;;;15.73;60.47;100969.00;5398703;33;34715;-92
2022/10/04 15:13:55;;;;;;;2.45;1.20;;;;;;;15.40;60.85;100967.47;5399104;33;33562;-89
2022/10/04 15:17:00;;;;;;;2.33;1.08;;;;;;;15.27;62.07;100968.22;5384998;33;34078;-89
2022/10/04 15:20:32;;;;;;;1.37;1.27;;;;;;;15.24;62.89;100965.69;5383782;33;32321;-89
2022/10/04 15:23:41;;;;;;;2.97;1.70;;;;;;;15.21;64.60;100966.78;5396953;33;34149;-89
2022/10/04 15:27:08;;;;;;;1.48;1.20;;;;;;;15.03;63.14;100962.53;5396566;33;34448;-89
2022/10/04 15:30:20;;;;;;;1.50;1.20;;;;;;;14.91;63.85;100962.31;5380679;33;32467;-89
2022/10/04 15:33:57;;;;;;;3.15;1.12;;;;;;;14.91;64.63;100969.44;5407760;32;34473;-89
2022/10/04 15:37:12;;;;;;;1.23;0.98;;;;;;;14.69;66.40;100966.16;5416923;32;34610;-90
2022/10/04 15:40:57;;;;;;;2.72;1.48;;;;;;;14.66;66.67;100977.03;5405094;32;32728;-89
2022/10/04 15:44:13;;;;;;;3.42;1.50;;;;;;;14.50;68.01;100976.19;5408318;32;32823;-89
2022/10/04 15:47:25;;;;;;;1.90;1.50;;;;;;;14.63;68.24;100982.53;5424716;32;34745;-90
